sensor_id;sensor_type;location;lat;lon;timestamp;P1;durP1;ratioP1;P2;durP2;ratioP2
20381;SDS011;10350;51.280;12.400;2023-03-26T00:01:15;3.50;;;3.40;;
20381;SDS011;10350;51.280;12.400;2023-03-26T00:03:41;4.10;;;3.90;;
20381;SDS011;10350;51.280;12.400;2023-03-26T00:06:11;4.07;;;3.88;;
20381;SDS011;10350;51.280;12.400;2023-03-26T00:08:38;3.72;;;3.58;;
20381;SDS011;10350;51.280;12.400;2023-03-26T00:11:05;3.65;;;3.47;;
20381;SDS011;10350;51.280;12.400;2023-03-26T00:13:32;3.30;;;3.20;;
20381;SDS011;10350;51.280;12.400;2023-03-26T00:15:58;3.40;;;3.30;;
20381;SDS011;10350;51.280;12.400;2023-03-26T00:18:25;3.63;;;3.42;;
20381;SDS011;10350;51.280;12.400;2023-03-26T00:20:59;4.40;;;3.92;;
20381;SDS011;10350;51.280;12.400;2023-03-26T00:23:26;2.95;;;2.85;;
20381;SDS011;10350;51.280;12.400;2023-03-26T00:25:52;3.20;;;3.10;;
20381;SDS011;10350;51.280;12.400;2023-03-26T00:28:19;3.10;;;3.00;;
20381;SDS011;10350;51.280;12.400;2023-03-26T00:30:46;3.92;;;3.67;;
20381;SDS011;10350;51.280;12.400;2023-03-26T00:33:13;3.40;;;3.30;;
20381;SDS011;10350;51.280;12.400;2023-03-26T00:35:41;3.65;;;3.45;;
20381;SDS011;10350;51.280;12.400;2023-03-26T00:38:12;3.63;;;3.42;;
20381;SDS011;10350;51.280;12.400;2023-03-26T00:40:38;3.80;;;3.60;;
20381;SDS011;10350;51.280;12.400;2023-03-26T00:43:08;3.20;;;3.05;;
20381;SDS011;10350;51.280;12.400;2023-03-26T00:45:42;3.65;;;3.47;;
20381;SDS011;10350;51.280;12.400;2023-03-26T00:48:08;2.90;;;2.80;;
20381;SDS011;10350;51.280;12.400;2023-03-26T00:50:34;4.78;;;3.63;;
20381;SDS011;10350;51.280;12.400;2023-03-26T00:53:00;3.30;;;3.20;;
20381;SDS011;10350;51.280;12.400;2023-03-26T00:55:27;3.97;;;3.78;;
20381;SDS011;10350;51.280;12.400;2023-03-26T00:57:53;3.50;;;3.30;;
20381;SDS011;10350;51.280;12.400;2023-03-26T01:00:19;3.55;;;3.38;;
20381;SDS011;10350;51.280;12.400;2023-03-26T01:02:52;3.72;;;3.53;;
20381;SDS011;10350;51.280;12.400;2023-03-26T01:08:01;3.83;;;3.63;;
20381;SDS011;10350;51.280;12.400;2023-03-26T01:10:29;3.47;;;3.28;;
20381;SDS011;10350;51.280;12.400;2023-03-26T01:13:02;4.03;;;3.83;;
20381;SDS011;10350;51.280;12.400;2023-03-26T01:15:28;3.85;;;3.65;;
20381;SDS011;10350;51.280;12.400;2023-03-26T01:17:54;3.63;;;3.53;;
20381;SDS011;10350;51.280;12.400;2023-03-26T01:20:22;3.78;;;3.58;;
20381;SDS011;10350;51.280;12.400;2023-03-26T01:22:54;3.80;;;3.50;;
20381;SDS011;10350;51.280;12.400;2023-03-26T01:25:22;4.13;;;3.92;;
20381;SDS011;10350;51.280;12.400;2023-03-26T01:27:51;3.20;;;3.10;;
20381;SDS011;10350;51.280;12.400;2023-03-26T01:30:20;3.65;;;3.45;;
20381;SDS011;10350;51.280;12.400;2023-03-26T01:32:53;4.00;;;3.80;;
20381;SDS011;10350;51.280;12.400;2023-03-26T01:35:37;4.28;;;3.95;;
20381;SDS011;10350;51.280;12.400;2023-03-26T01:40:59;3.40;;;3.30;;
20381;SDS011;10350;51.280;12.400;2023-03-26T01:45:55;4.20;;;3.85;;
20381;SDS011;10350;51.280;12.400;2023-03-26T01:48:27;4.78;;;3.88;;
20381;SDS011;10350;51.280;12.400;2023-03-26T01:50:53;3.60;;;3.40;;
20381;SDS011;10350;51.280;12.400;2023-03-26T01:53:20;3.55;;;3.42;;
20381;SDS011;10350;51.280;12.400;2023-03-26T01:55:49;4.22;;;4.03;;
20381;SDS011;10350;51.280;12.400;2023-03-26T01:58:23;6.70;;;3.47;;
20381;SDS011;10350;51.280;12.400;2023-03-26T02:00:58;3.55;;;3.35;;
20381;SDS011;10350;51.280;12.400;2023-03-26T02:03:29;3.58;;;3.38;;
20381;SDS011;10350;51.280;12.400;2023-03-26T02:08:41;3.50;;;3.40;;
20381;SDS011;10350;51.280;12.400;2023-03-26T02:11:11;4.00;;;3.65;;
20381;SDS011;10350;51.280;12.400;2023-03-26T02:13:39;4.07;;;3.88;;
20381;SDS011;10350;51.280;12.400;2023-03-26T02:16:06;3.72;;;3.53;;
20381;SDS011;10350;51.280;12.400;2023-03-26T02:18:33;4.55;;;4.35;;
20381;SDS011;10350;51.280;12.400;2023-03-26T02:21:03;3.63;;;3.42;;
20381;SDS011;10350;51.280;12.400;2023-03-26T02:23:30;3.50;;;3.30;;
20381;SDS011;10350;51.280;12.400;2023-03-26T02:25:59;2.92;;;2.83;;
20381;SDS011;10350;51.280;12.400;2023-03-26T02:28:25;3.70;;;3.50;;
20381;SDS011;10350;51.280;12.400;2023-03-26T02:30:51;3.78;;;3.58;;
20381;SDS011;10350;51.280;12.400;2023-03-26T02:33:21;3.30;;;3.20;;
20381;SDS011;10350;51.280;12.400;2023-03-26T02:35:47;3.40;;;3.30;;
20381;SDS011;10350;51.280;12.400;2023-03-26T02:38:13;3.53;;;3.42;;
20381;SDS011;10350;51.280;12.400;2023-03-26T02:40:40;9.45;;;3.88;;
20381;SDS011;10350;51.280;12.400;2023-03-26T02:43:06;3.28;;;3.17;;
20381;SDS011;10350;51.280;12.400;2023-03-26T02:45:32;3.60;;;3.50;;
20381;SDS011;10350;51.280;12.400;2023-03-26T02:47:58;4.82;;;3.72;;
20381;SDS011;10350;51.280;12.400;2023-03-26T02:50:24;3.40;;;3.30;;
20381;SDS011;10350;51.280;12.400;2023-03-26T02:52:50;4.13;;;3.92;;
20381;SDS011;10350;51.280;12.400;2023-03-26T02:55:17;3.95;;;3.75;;
20381;SDS011;10350;51.280;12.400;2023-03-26T02:57:43;3.13;;;3.03;;
20381;SDS011;10350;51.280;12.400;2023-03-26T03:00:09;3.50;;;3.40;;
20381;SDS011;10350;51.280;12.400;2023-03-26T03:02:40;3.50;;;3.40;;
20381;SDS011;10350;51.280;12.400;2023-03-26T03:05:08;3.45;;;3.35;;
20381;SDS011;10350;51.280;12.400;2023-03-26T03:07:34;3.50;;;3.40;;
20381;SDS011;10350;51.280;12.400;2023-03-26T03:12:28;3.85;;;3.65;;
20381;SDS011;10350;51.280;12.400;2023-03-26T03:14:54;4.13;;;3.83;;
20381;SDS011;10350;51.280;12.400;2023-03-26T03:17:20;3.50;;;3.40;;
20381;SDS011;10350;51.280;12.400;2023-03-26T03:19:46;3.25;;;3.15;;
20381;SDS011;10350;51.280;12.400;2023-03-26T03:22:12;3.30;;;3.20;;
20381;SDS011;10350;51.280;12.400;2023-03-26T03:24:38;3.58;;;3.47;;
20381;SDS011;10350;51.280;12.400;2023-03-26T03:27:04;3.47;;;3.28;;
20381;SDS011;10350;51.280;12.400;2023-03-26T03:29:30;3.67;;;3.58;;
20381;SDS011;10350;51.280;12.400;2023-03-26T03:31:56;3.75;;;3.63;;
20381;SDS011;10350;51.280;12.400;2023-03-26T03:34:24;3.80;;;3.60;;
20381;SDS011;10350;51.280;12.400;2023-03-26T03:36:49;4.03;;;3.83;;
20381;SDS011;10350;51.280;12.400;2023-03-26T03:39:15;4.72;;;4.40;;
20381;SDS011;10350;51.280;12.400;2023-03-26T03:41:41;3.88;;;3.67;;
20381;SDS011;10350;51.280;12.400;2023-03-26T03:44:07;4.20;;;4.00;;
20381;SDS011;10350;51.280;12.400;2023-03-26T03:46:34;3.70;;;3.50;;
20381;SDS011;10350;51.280;12.400;2023-03-26T03:49:00;3.72;;;3.63;;
20381;SDS011;10350;51.280;12.400;2023-03-26T03:51:26;3.67;;;3.47;;
20381;SDS011;10350;51.280;12.400;2023-03-26T03:53:52;3.92;;;3.72;;
20381;SDS011;10350;51.280;12.400;2023-03-26T03:56:19;3.85;;;3.65;;
20381;SDS011;10350;51.280;12.400;2023-03-26T04:01:14;3.70;;;3.50;;
20381;SDS011;10350;51.280;12.400;2023-03-26T04:03:41;3.78;;;3.55;;
20381;SDS011;10350;51.280;12.400;2023-03-26T04:06:10;3.90;;;3.70;;
20381;SDS011;10350;51.280;12.400;2023-03-26T04:08:36;4.03;;;3.72;;
20381;SDS011;10350;51.280;12.400;2023-03-26T04:11:02;3.70;;;3.50;;
20381;SDS011;10350;51.280;12.400;2023-03-26T04:13:28;3.72;;;3.63;;
20381;SDS011;10350;51.280;12.400;2023-03-26T04:15:54;4.30;;;4.10;;
20381;SDS011;10350;51.280;12.400;2023-03-26T04:18:20;3.80;;;3.50;;
20381;SDS011;10350;51.280;12.400;2023-03-26T04:20:47;3.95;;;3.75;;
20381;SDS011;10350;51.280;12.400;2023-03-26T04:23:13;3.47;;;3.30;;
20381;SDS011;10350;51.280;12.400;2023-03-26T04:25:49;3.65;;;3.55;;
20381;SDS011;10350;51.280;12.400;2023-03-26T04:30:50;3.90;;;3.70;;
20381;SDS011;10350;51.280;12.400;2023-03-26T04:33:17;4.17;;;3.77;;
20381;SDS011;10350;51.280;12.400;2023-03-26T04:35:45;4.75;;;4.45;;
20381;SDS011;10350;51.280;12.400;2023-03-26T04:38:12;4.03;;;3.83;;
20381;SDS011;10350;51.280;12.400;2023-03-26T04:40:40;4.07;;;3.88;;
20381;SDS011;10350;51.280;12.400;2023-03-26T04:43:10;4.38;;;4.18;;
20381;SDS011;10350;51.280;12.400;2023-03-26T04:45:36;3.58;;;3.47;;
20381;SDS011;10350;51.280;12.400;2023-03-26T04:48:03;3.42;;;3.33;;
20381;SDS011;10350;51.280;12.400;2023-03-26T04:50:31;4.10;;;3.90;;
20381;SDS011;10350;51.280;12.400;2023-03-26T04:52:57;4.07;;;3.92;;
20381;SDS011;10350;51.280;12.400;2023-03-26T04:55:24;3.70;;;3.60;;
20381;SDS011;10350;51.280;12.400;2023-03-26T04:57:53;3.90;;;3.70;;
20381;SDS011;10350;51.280;12.400;2023-03-26T05:00:20;4.55;;;4.20;;
20381;SDS011;10350;51.280;12.400;2023-03-26T05:02:46;4.25;;;4.05;;
20381;SDS011;10350;51.280;12.400;2023-03-26T05:05:18;3.17;;;3.08;;
20381;SDS011;10350;51.280;12.400;2023-03-26T05:07:44;3.28;;;3.17;;
20381;SDS011;10350;51.280;12.400;2023-03-26T05:10:11;3.90;;;3.70;;
20381;SDS011;10350;51.280;12.400;2023-03-26T05:12:38;4.40;;;4.20;;
20381;SDS011;10350;51.280;12.400;2023-03-26T05:15:04;4.28;;;4.07;;
20381;SDS011;10350;51.280;12.400;2023-03-26T05:17:30;5.18;;;4.93;;
20381;SDS011;10350;51.280;12.400;2023-03-26T05:19:58;4.20;;;4.00;;
20381;SDS011;10350;51.280;12.400;2023-03-26T05:22:24;4.80;;;4.50;;
20381;SDS011;10350;51.280;12.400;2023-03-26T05:24:50;3.67;;;3.58;;
20381;SDS011;10350;51.280;12.400;2023-03-26T05:27:16;4.38;;;3.97;;
20381;SDS011;10350;51.280;12.400;2023-03-26T05:29:46;4.70;;;4.50;;
20381;SDS011;10350;51.280;12.400;2023-03-26T05:32:12;4.20;;;4.00;;
20381;SDS011;10350;51.280;12.400;2023-03-26T05:34:38;4.25;;;4.05;;
20381;SDS011;10350;51.280;12.400;2023-03-26T05:37:04;4.68;;;4.30;;
20381;SDS011;10350;51.280;12.400;2023-03-26T05:39:31;4.60;;;4.40;;
20381;SDS011;10350;51.280;12.400;2023-03-26T05:41:57;5.10;;;4.80;;
20381;SDS011;10350;51.280;12.400;2023-03-26T05:44:23;4.28;;;4.07;;
20381;SDS011;10350;51.280;12.400;2023-03-26T05:46:49;3.92;;;3.78;;
20381;SDS011;10350;51.280;12.400;2023-03-26T05:49:15;3.95;;;3.80;;
20381;SDS011;10350;51.280;12.400;2023-03-26T05:51:41;4.35;;;4.15;;
20381;SDS011;10350;51.280;12.400;2023-03-26T05:54:07;3.67;;;3.58;;
20381;SDS011;10350;51.280;12.400;2023-03-26T05:56:33;4.18;;;3.97;;
20381;SDS011;10350;51.280;12.400;2023-03-26T05:58:59;4.60;;;4.40;;
20381;SDS011;10350;51.280;12.400;2023-03-26T06:01:25;4.20;;;4.00;;
20381;SDS011;10350;51.280;12.400;2023-03-26T06:03:53;4.13;;;3.90;;
20381;SDS011;10350;51.280;12.400;2023-03-26T06:06:19;4.30;;;4.10;;
20381;SDS011;10350;51.280;12.400;2023-03-26T06:08:49;4.70;;;4.40;;
20381;SDS011;10350;51.280;12.400;2023-03-26T06:11:16;4.20;;;4.00;;
20381;SDS011;10350;51.280;12.400;2023-03-26T06:13:43;4.60;;;4.40;;
20381;SDS011;10350;51.280;12.400;2023-03-26T06:16:09;5.75;;;5.43;;
20381;SDS011;10350;51.280;12.400;2023-03-26T06:18:35;4.82;;;4.63;;
20381;SDS011;10350;51.280;12.400;2023-03-26T06:21:02;5.88;;;5.28;;
20381;SDS011;10350;51.280;12.400;2023-03-26T06:23:28;5.10;;;4.90;;
20381;SDS011;10350;51.280;12.400;2023-03-26T06:25:54;4.78;;;4.57;;
20381;SDS011;10350;51.280;12.400;2023-03-26T06:28:20;4.68;;;4.47;;
20381;SDS011;10350;51.280;12.400;2023-03-26T06:30:46;5.55;;;5.35;;
20381;SDS011;10350;51.280;12.400;2023-03-26T06:33:12;5.03;;;4.82;;
20381;SDS011;10350;51.280;12.400;2023-03-26T06:35:39;5.68;;;5.47;;
20381;SDS011;10350;51.280;12.400;2023-03-26T06:38:06;6.10;;;5.80;;
20381;SDS011;10350;51.280;12.400;2023-03-26T06:40:32;5.45;;;5.20;;
20381;SDS011;10350;51.280;12.400;2023-03-26T06:42:59;5.22;;;5.03;;
20381;SDS011;10350;51.280;12.400;2023-03-26T06:45:25;5.22;;;4.93;;
20381;SDS011;10350;51.280;12.400;2023-03-26T06:47:51;4.90;;;4.70;;
20381;SDS011;10350;51.280;12.400;2023-03-26T06:50:17;5.22;;;4.88;;
20381;SDS011;10350;51.280;12.400;2023-03-26T06:52:43;5.53;;;5.15;;
20381;SDS011;10350;51.280;12.400;2023-03-26T06:55:09;4.63;;;4.43;;
20381;SDS011;10350;51.280;12.400;2023-03-26T06:57:35;5.45;;;5.25;;
20381;SDS011;10350;51.280;12.400;2023-03-26T07:00:02;5.72;;;5.43;;
20381;SDS011;10350;51.280;12.400;2023-03-26T07:02:29;5.00;;;4.75;;
20381;SDS011;10350;51.280;12.400;2023-03-26T07:04:55;5.80;;;5.53;;
20381;SDS011;10350;51.280;12.400;2023-03-26T07:07:21;4.68;;;4.47;;
20381;SDS011;10350;51.280;12.400;2023-03-26T07:09:48;5.40;;;5.15;;
20381;SDS011;10350;51.280;12.400;2023-03-26T07:12:14;5.28;;;4.97;;
20381;SDS011;10350;51.280;12.400;2023-03-26T07:14:40;4.72;;;4.45;;
20381;SDS011;10350;51.280;12.400;2023-03-26T07:17:06;4.85;;;4.65;;
20381;SDS011;10350;51.280;12.400;2023-03-26T07:19:32;5.30;;;5.00;;
20381;SDS011;10350;51.280;12.400;2023-03-26T07:21:59;5.88;;;5.38;;
20381;SDS011;10350;51.280;12.400;2023-03-26T07:24:25;5.93;;;5.55;;
20381;SDS011;10350;51.280;12.400;2023-03-26T07:31:51;5.95;;;5.68;;
20381;SDS011;10350;51.280;12.400;2023-03-26T07:37:12;6.40;;;6.10;;
20381;SDS011;10350;51.280;12.400;2023-03-26T07:39:55;6.43;;;6.00;;
20381;SDS011;10350;51.280;12.400;2023-03-26T07:44:55;6.80;;;6.45;;
20381;SDS011;10350;51.280;12.400;2023-03-26T07:49:51;5.50;;;5.30;;
20381;SDS011;10350;51.280;12.400;2023-03-26T07:52:26;6.72;;;6.30;;
20381;SDS011;10350;51.280;12.400;2023-03-26T07:55:10;6.60;;;6.07;;
20381;SDS011;10350;51.280;12.400;2023-03-26T07:57:43;9.10;;;7.35;;
20381;SDS011;10350;51.280;12.400;2023-03-26T08:00:16;6.75;;;6.35;;
20381;SDS011;10350;51.280;12.400;2023-03-26T08:03:26;6.78;;;6.20;;
20381;SDS011;10350;51.280;12.400;2023-03-26T08:05:33;6.60;;;6.30;;
20381;SDS011;10350;51.280;12.400;2023-03-26T08:16:17;6.72;;;6.43;;
20381;SDS011;10350;51.280;12.400;2023-03-26T08:21:37;6.70;;;6.20;;
20381;SDS011;10350;51.280;12.400;2023-03-26T08:31:36;7.32;;;6.88;;
20381;SDS011;10350;51.280;12.400;2023-03-26T08:34:04;7.82;;;7.35;;
20381;SDS011;10350;51.280;12.400;2023-03-26T08:36:30;8.05;;;7.65;;
20381;SDS011;10350;51.280;12.400;2023-03-26T08:38:56;7.28;;;6.60;;
20381;SDS011;10350;51.280;12.400;2023-03-26T08:41:44;7.35;;;6.85;;
20381;SDS011;10350;51.280;12.400;2023-03-26T09:00:24;7.70;;;7.30;;
20381;SDS011;10350;51.280;12.400;2023-03-26T09:03:01;8.98;;;8.48;;
20381;SDS011;10350;51.280;12.400;2023-03-26T09:11:03;10.85;;;10.27;;
20381;SDS011;10350;51.280;12.400;2023-03-26T09:42:16;8.05;;;7.53;;
20381;SDS011;10350;51.280;12.400;2023-03-26T09:55:51;6.90;;;6.50;;
20381;SDS011;10350;51.280;12.400;2023-03-26T10:03:54;7.20;;;6.60;;
20381;SDS011;10350;51.280;12.400;2023-03-26T10:14:25;7.60;;;7.20;;
20381;SDS011;10350;51.280;12.400;2023-03-26T10:17:03;7.10;;;6.63;;
20381;SDS011;10350;51.280;12.400;2023-03-26T10:22:26;7.90;;;7.30;;
20381;SDS011;10350;51.280;12.400;2023-03-26T10:34:54;11.70;;;10.88;;
20381;SDS011;10350;51.280;12.400;2023-03-26T10:45:02;10.20;;;9.63;;
20381;SDS011;10350;51.280;12.400;2023-03-26T10:52:53;12.65;;;11.80;;
20381;SDS011;10350;51.280;12.400;2023-03-26T10:55:38;11.38;;;10.57;;
20381;SDS011;10350;51.280;12.400;2023-03-26T10:58:16;10.95;;;10.35;;
20381;SDS011;10350;51.280;12.400;2023-03-26T11:00:47;10.32;;;9.45;;
20381;SDS011;10350;51.280;12.400;2023-03-26T11:13:52;9.15;;;8.45;;
20381;SDS011;10350;51.280;12.400;2023-03-26T11:16:23;8.60;;;8.10;;
20381;SDS011;10350;51.280;12.400;2023-03-26T11:19:51;8.05;;;7.65;;
20381;SDS011;10350;51.280;12.400;2023-03-26T11:27:01;8.15;;;7.75;;
20381;SDS011;10350;51.280;12.400;2023-03-26T11:35:28;8.93;;;8.38;;
20381;SDS011;10350;51.280;12.400;2023-03-26T11:37:40;8.68;;;8.18;;
20381;SDS011;10350;51.280;12.400;2023-03-26T11:40:13;10.13;;;9.60;;
20381;SDS011;10350;51.280;12.400;2023-03-26T11:42:41;10.02;;;9.52;;
20381;SDS011;10350;51.280;12.400;2023-03-26T11:45:13;9.90;;;8.40;;
20381;SDS011;10350;51.280;12.400;2023-03-26T11:47:45;9.77;;;9.05;;
20381;SDS011;10350;51.280;12.400;2023-03-26T11:50:17;8.80;;;8.40;;
20381;SDS011;10350;51.280;12.400;2023-03-26T11:52:45;10.65;;;9.95;;
20381;SDS011;10350;51.280;12.400;2023-03-26T11:55:11;10.45;;;9.82;;
20381;SDS011;10350;51.280;12.400;2023-03-26T11:57:37;9.05;;;8.30;;
20381;SDS011;10350;51.280;12.400;2023-03-26T12:00:07;9.52;;;9.02;;
20381;SDS011;10350;51.280;12.400;2023-03-26T12:02:40;10.35;;;9.60;;
20381;SDS011;10350;51.280;12.400;2023-03-26T12:05:10;7.80;;;7.20;;
20381;SDS011;10350;51.280;12.400;2023-03-26T12:07:41;7.88;;;7.22;;
20381;SDS011;10350;51.280;12.400;2023-03-26T12:10:19;9.73;;;8.90;;
20381;SDS011;10350;51.280;12.400;2023-03-26T12:12:46;8.32;;;7.80;;
20381;SDS011;10350;51.280;12.400;2023-03-26T12:15:13;8.90;;;8.32;;
20381;SDS011;10350;51.280;12.400;2023-03-26T12:17:39;8.90;;;8.30;;
20381;SDS011;10350;51.280;12.400;2023-03-26T12:22:51;8.48;;;7.97;;
20381;SDS011;10350;51.280;12.400;2023-03-26T12:25:25;7.70;;;7.30;;
20381;SDS011;10350;51.280;12.400;2023-03-26T12:30:27;7.90;;;7.50;;
20381;SDS011;10350;51.280;12.400;2023-03-26T12:33:03;6.38;;;6.07;;
20381;SDS011;10350;51.280;12.400;2023-03-26T12:35:30;6.65;;;6.03;;
20381;SDS011;10350;51.280;12.400;2023-03-26T12:40:39;5.18;;;4.88;;
20381;SDS011;10350;51.280;12.400;2023-03-26T12:43:20;4.27;;;4.07;;
20381;SDS011;10350;51.280;12.400;2023-03-26T12:45:47;4.97;;;4.78;;
20381;SDS011;10350;51.280;12.400;2023-03-26T12:48:14;3.65;;;3.47;;
20381;SDS011;10350;51.280;12.400;2023-03-26T12:53:17;3.08;;;2.95;;
20381;SDS011;10350;51.280;12.400;2023-03-26T13:00:59;3.67;;;3.42;;
20381;SDS011;10350;51.280;12.400;2023-03-26T13:11:16;3.70;;;3.50;;
20381;SDS011;10350;51.280;12.400;2023-03-26T13:13:48;4.88;;;4.57;;
20381;SDS011;10350;51.280;12.400;2023-03-26T13:21:40;4.78;;;4.57;;
20381;SDS011;10350;51.280;12.400;2023-03-26T13:37:18;4.95;;;4.75;;
20381;SDS011;10350;51.280;12.400;2023-03-26T13:42:24;5.30;;;4.95;;
20381;SDS011;10350;51.280;12.400;2023-03-26T13:48:05;6.20;;;5.70;;
20381;SDS011;10350;51.280;12.400;2023-03-26T13:50:37;5.38;;;5.07;;
20381;SDS011;10350;51.280;12.400;2023-03-26T13:53:12;5.65;;;5.35;;
20381;SDS011;10350;51.280;12.400;2023-03-26T13:55:39;5.97;;;5.68;;
20381;SDS011;10350;51.280;12.400;2023-03-26T13:58:11;5.22;;;5.03;;
20381;SDS011;10350;51.280;12.400;2023-03-26T14:03:26;5.97;;;5.35;;
20381;SDS011;10350;51.280;12.400;2023-03-26T14:05:54;6.40;;;5.95;;
20381;SDS011;10350;51.280;12.400;2023-03-26T14:10:49;5.40;;;5.20;;
20381;SDS011;10350;51.280;12.400;2023-03-26T14:14:05;6.32;;;6.03;;
20381;SDS011;10350;51.280;12.400;2023-03-26T14:16:09;6.95;;;6.55;;
20381;SDS011;10350;51.280;12.400;2023-03-26T14:18:43;7.03;;;6.72;;
20381;SDS011;10350;51.280;12.400;2023-03-26T14:36:48;9.02;;;7.68;;
20381;SDS011;10350;51.280;12.400;2023-03-26T14:42:07;8.52;;;8.05;;
20381;SDS011;10350;51.280;12.400;2023-03-26T14:47:20;8.77;;;8.38;;
20381;SDS011;10350;51.280;12.400;2023-03-26T14:54:48;9.20;;;8.70;;
20381;SDS011;10350;51.280;12.400;2023-03-26T15:04:54;8.23;;;7.82;;
20381;SDS011;10350;51.280;12.400;2023-03-26T15:18:18;9.77;;;9.18;;
20381;SDS011;10350;51.280;12.400;2023-03-26T15:33:59;12.20;;;11.60;;
20381;SDS011;10350;51.280;12.400;2023-03-26T15:41:43;12.15;;;11.55;;
20381;SDS011;10350;51.280;12.400;2023-03-26T15:44:32;12.18;;;11.57;;
20381;SDS011;10350;51.280;12.400;2023-03-26T15:49:44;12.77;;;12.15;;
20381;SDS011;10350;51.280;12.400;2023-03-26T16:04:52;14.90;;;14.00;;
20381;SDS011;10350;51.280;12.400;2023-03-26T16:10:12;14.07;;;13.38;;
20381;SDS011;10350;51.280;12.400;2023-03-26T16:15:41;14.02;;;13.32;;
20381;SDS011;10350;51.280;12.400;2023-03-26T16:28:59;14.80;;;14.10;;
20381;SDS011;10350;51.280;12.400;2023-03-26T16:31:29;13.45;;;12.77;;
20381;SDS011;10350;51.280;12.400;2023-03-26T16:36:36;14.90;;;14.13;;
20381;SDS011;10350;51.280;12.400;2023-03-26T16:41:32;14.55;;;13.85;;
20381;SDS011;10350;51.280;12.400;2023-03-26T16:52:01;14.25;;;13.52;;
20381;SDS011;10350;51.280;12.400;2023-03-26T16:59:48;17.30;;;15.65;;
20381;SDS011;10350;51.280;12.400;2023-03-26T17:05:19;15.50;;;14.70;;
20381;SDS011;10350;51.280;12.400;2023-03-26T17:07:54;16.63;;;15.80;;
20381;SDS011;10350;51.280;12.400;2023-03-26T17:13:02;16.40;;;15.50;;
20381;SDS011;10350;51.280;12.400;2023-03-26T17:20:57;13.68;;;13.02;;
20381;SDS011;10350;51.280;12.400;2023-03-26T17:26:15;13.13;;;12.50;;
20381;SDS011;10350;51.280;12.400;2023-03-26T17:34:58;15.77;;;14.98;;
20381;SDS011;10350;51.280;12.400;2023-03-26T17:36:59;16.00;;;15.10;;
20381;SDS011;10350;51.280;12.400;2023-03-26T17:50:25;16.10;;;15.27;;
20381;SDS011;10350;51.280;12.400;2023-03-26T17:55:15;17.38;;;16.52;;
20381;SDS011;10350;51.280;12.400;2023-03-26T17:57:42;16.57;;;15.77;;
20381;SDS011;10350;51.280;12.400;2023-03-26T18:00:16;15.20;;;14.45;;
20381;SDS011;10350;51.280;12.400;2023-03-26T18:02:48;15.60;;;14.80;;
20381;SDS011;10350;51.280;12.400;2023-03-26T18:05:17;16.08;;;15.18;;
20381;SDS011;10350;51.280;12.400;2023-03-26T18:07:48;17.88;;;16.98;;
20381;SDS011;10350;51.280;12.400;2023-03-26T18:10:31;15.80;;;15.02;;
20381;SDS011;10350;51.280;12.400;2023-03-26T18:17:50;15.95;;;15.00;;
20381;SDS011;10350;51.280;12.400;2023-03-26T18:20:25;16.33;;;15.45;;
20381;SDS011;10350;51.280;12.400;2023-03-26T18:22:52;16.60;;;15.70;;
20381;SDS011;10350;51.280;12.400;2023-03-26T18:27:47;18.55;;;17.52;;
20381;SDS011;10350;51.280;12.400;2023-03-26T18:30:15;17.55;;;16.65;;
20381;SDS011;10350;51.280;12.400;2023-03-26T18:35:21;19.40;;;18.42;;
20381;SDS011;10350;51.280;12.400;2023-03-26T18:37:49;18.00;;;17.10;;
20381;SDS011;10350;51.280;12.400;2023-03-26T18:40:20;17.63;;;16.73;;
20381;SDS011;10350;51.280;12.400;2023-03-26T18:42:49;17.20;;;16.30;;
20381;SDS011;10350;51.280;12.400;2023-03-26T18:47:50;18.50;;;17.40;;
20381;SDS011;10350;51.280;12.400;2023-03-26T18:50:17;19.08;;;18.08;;
20381;SDS011;10350;51.280;12.400;2023-03-26T18:52:46;18.80;;;17.80;;
20381;SDS011;10350;51.280;12.400;2023-03-26T18:55:12;17.15;;;16.25;;
20381;SDS011;10350;51.280;12.400;2023-03-26T18:57:39;17.17;;;16.38;;
20381;SDS011;10350;51.280;12.400;2023-03-26T19:00:22;18.50;;;17.53;;
20381;SDS011;10350;51.280;12.400;2023-03-26T19:02:50;16.70;;;15.85;;
20381;SDS011;10350;51.280;12.400;2023-03-26T19:05:22;16.55;;;15.65;;
20381;SDS011;10350;51.280;12.400;2023-03-26T19:07:48;18.52;;;17.52;;
20381;SDS011;10350;51.280;12.400;2023-03-26T19:10:15;17.25;;;16.42;;
20381;SDS011;10350;51.280;12.400;2023-03-26T19:12:53;19.80;;;18.70;;
20381;SDS011;10350;51.280;12.400;2023-03-26T19:15:20;18.63;;;17.65;;
20381;SDS011;10350;51.280;12.400;2023-03-26T19:17:47;18.40;;;17.40;;
20381;SDS011;10350;51.280;12.400;2023-03-26T19:20:16;19.33;;;18.23;;
20381;SDS011;10350;51.280;12.400;2023-03-26T19:22:43;18.95;;;17.88;;
20381;SDS011;10350;51.280;12.400;2023-03-26T19:25:16;19.92;;;18.77;;
20381;SDS011;10350;51.280;12.400;2023-03-26T19:27:44;18.65;;;17.55;;
20381;SDS011;10350;51.280;12.400;2023-03-26T19:30:12;19.10;;;18.00;;
20381;SDS011;10350;51.280;12.400;2023-03-26T19:32:50;18.98;;;17.92;;
20381;SDS011;10350;51.280;12.400;2023-03-26T19:35:18;19.85;;;18.63;;
20381;SDS011;10350;51.280;12.400;2023-03-26T19:37:51;19.05;;;17.85;;
20381;SDS011;10350;51.280;12.400;2023-03-26T19:40:21;18.88;;;17.88;;
20381;SDS011;10350;51.280;12.400;2023-03-26T19:42:56;17.38;;;16.38;;
20381;SDS011;10350;51.280;12.400;2023-03-26T19:47:50;14.20;;;13.48;;
20381;SDS011;10350;51.280;12.400;2023-03-26T19:50:35;17.70;;;16.58;;
20381;SDS011;10350;51.280;12.400;2023-03-26T19:55:40;18.80;;;17.70;;
20381;SDS011;10350;51.280;12.400;2023-03-26T19:58:10;19.88;;;18.50;;
20381;SDS011;10350;51.280;12.400;2023-03-26T20:00:36;18.92;;;17.92;;
20381;SDS011;10350;51.280;12.400;2023-03-26T20:03:02;18.27;;;17.27;;
20381;SDS011;10350;51.280;12.400;2023-03-26T20:05:30;18.50;;;17.50;;
20381;SDS011;10350;51.280;12.400;2023-03-26T20:07:58;18.50;;;17.55;;
20381;SDS011;10350;51.280;12.400;2023-03-26T20:10:24;21.03;;;19.50;;
20381;SDS011;10350;51.280;12.400;2023-03-26T20:12:51;17.77;;;16.88;;
20381;SDS011;10350;51.280;12.400;2023-03-26T20:15:17;18.20;;;17.08;;
20381;SDS011;10350;51.280;12.400;2023-03-26T20:17:45;18.83;;;17.80;;
20381;SDS011;10350;51.280;12.400;2023-03-26T20:20:13;18.83;;;17.85;;
20381;SDS011;10350;51.280;12.400;2023-03-26T20:22:40;20.23;;;19.20;;
20381;SDS011;10350;51.280;12.400;2023-03-26T20:25:14;18.70;;;17.70;;
20381;SDS011;10350;51.280;12.400;2023-03-26T20:27:41;14.90;;;14.18;;
20381;SDS011;10350;51.280;12.400;2023-03-26T20:30:08;15.95;;;15.15;;
20381;SDS011;10350;51.280;12.400;2023-03-26T20:32:34;15.77;;;14.90;;
20381;SDS011;10350;51.280;12.400;2023-03-26T20:35:08;15.05;;;14.25;;
20381;SDS011;10350;51.280;12.400;2023-03-26T20:37:36;16.42;;;15.63;;
20381;SDS011;10350;51.280;12.400;2023-03-26T20:40:02;16.58;;;15.52;;
20381;SDS011;10350;51.280;12.400;2023-03-26T20:44:56;12.18;;;11.57;;
20381;SDS011;10350;51.280;12.400;2023-03-26T20:47:22;14.75;;;13.75;;
20381;SDS011;10350;51.280;12.400;2023-03-26T20:49:48;16.45;;;15.55;;
20381;SDS011;10350;51.280;12.400;2023-03-26T20:52:16;16.10;;;15.15;;
20381;SDS011;10350;51.280;12.400;2023-03-26T20:54:42;15.15;;;14.32;;
20381;SDS011;10350;51.280;12.400;2023-03-26T20:57:09;14.55;;;13.75;;
20381;SDS011;10350;51.280;12.400;2023-03-26T20:59:37;15.73;;;14.80;;
20381;SDS011;10350;51.280;12.400;2023-03-26T21:02:03;15.45;;;14.45;;
20381;SDS011;10350;51.280;12.400;2023-03-26T21:04:29;16.27;;;15.38;;
20381;SDS011;10350;51.280;12.400;2023-03-26T21:06:56;16.15;;;15.25;;